sensor_id;sensor_type;location;lat;lon;timestamp;temperature;humidity
19680;DHT22;9989;48.962;9.182;2023-04-01T00:02:07;9.80;99.90
19680;DHT22;9989;48.962;9.182;2023-04-01T00:04:32;9.80;99.90
19680;DHT22;9989;48.962;9.182;2023-04-01T00:06:58;9.80;99.90
19680;DHT22;9989;48.962;9.182;2023-04-01T00:09:24;9.80;99.90
19680;DHT22;9989;48.962;9.182;2023-04-01T00:11:50;9.80;99.90
19680;DHT22;9989;48.962;9.182;2023-04-01T00:14:16;9.80;99.90
19680;DHT22;9989;48.962;9.182;2023-04-01T00:16:41;9.80;99.90
19680;DHT22;9989;48.962;9.182;2023-04-01T00:19:07;9.80;99.90
19680;DHT22;9989;48.962;9.182;2023-04-01T00:21:33;9.90;99.90
19680;DHT22;9989;48.962;9.182;2023-04-01T00:23:58;9.90;99.90
19680;DHT22;9989;48.962;9.182;2023-04-01T00:26:24;9.90;99.90
19680;DHT22;9989;48.962;9.182;2023-04-01T00:28:50;9.90;99.90
19680;DHT22;9989;48.962;9.182;2023-04-01T00:31:16;9.90;99.90
19680;DHT22;9989;48.962;9.182;2023-04-01T00:33:41;9.90;99.90
19680;DHT22;9989;48.962;9.182;2023-04-01T00:36:11;9.90;99.90
19680;DHT22;9989;48.962;9.182;2023-04-01T00:38:37;9.90;99.90
19680;DHT22;9989;48.962;9.182;2023-04-01T00:41:03;9.90;99.90
19680;DHT22;9989;48.962;9.182;2023-04-01T00:43:29;9.90;99.90
19680;DHT22;9989;48.962;9.182;2023-04-01T00:45:55;9.90;99.90
19680;DHT22;9989;48.962;9.182;2023-04-01T00:48:30;9.90;99.90
19680;DHT22;9989;48.962;9.182;2023-04-01T00:51:29;9.90;99.90
19680;DHT22;9989;48.962;9.182;2023-04-01T00:53:56;9.90;99.90
19680;DHT22;9989;48.962;9.182;2023-04-01T00:59:20;9.90;99.90
19680;DHT22;9989;48.962;9.182;2023-04-01T01:01:46;9.90;99.90
19680;DHT22;9989;48.962;9.182;2023-04-01T01:04:29;10.00;99.90
19680;DHT22;9989;48.962;9.182;2023-04-01T01:07:36;10.00;99.90
19680;DHT22;9989;48.962;9.182;2023-04-01T01:10:18;9.90;99.90
19680;DHT22;9989;48.962;9.182;2023-04-01T01:18:19;9.90;99.90
19680;DHT22;9989;48.962;9.182;2023-04-01T01:21:00;10.00;99.90
19680;DHT22;9989;48.962;9.182;2023-04-01T01:35:21;10.20;99.90
19680;DHT22;9989;48.962;9.182;2023-04-01T01:37:52;10.30;99.90
19680;DHT22;9989;48.962;9.182;2023-04-01T01:40:19;10.40;99.90
19680;DHT22;9989;48.962;9.182;2023-04-01T01:42:50;10.50;99.90
19680;DHT22;9989;48.962;9.182;2023-04-01T01:45:20;10.60;99.90
19680;DHT22;9989;48.962;9.182;2023-04-01T01:47:47;10.60;99.90
19680;DHT22;9989;48.962;9.182;2023-04-01T01:50:16;10.70;99.90
19680;DHT22;9989;48.962;9.182;2023-04-01T01:52:42;10.70;99.90
19680;DHT22;9989;48.962;9.182;2023-04-01T01:55:30;10.60;99.90
19680;DHT22;9989;48.962;9.182;2023-04-01T01:58:02;10.50;99.90
19680;DHT22;9989;48.962;9.182;2023-04-01T02:00:31;10.50;99.90
19680;DHT22;9989;48.962;9.182;2023-04-01T02:02:58;10.50;99.90
19680;DHT22;9989;48.962;9.182;2023-04-01T02:05:26;10.50;99.90
19680;DHT22;9989;48.962;9.182;2023-04-01T02:08:14;10.60;99.90
19680;DHT22;9989;48.962;9.182;2023-04-01T02:10:45;10.60;99.90
19680;DHT22;9989;48.962;9.182;2023-04-01T02:13:21;10.60;99.90
19680;DHT22;9989;48.962;9.182;2023-04-01T02:15:50;10.50;99.90
19680;DHT22;9989;48.962;9.182;2023-04-01T02:18:19;10.40;99.90
19680;DHT22;9989;48.962;9.182;2023-04-01T02:20:46;10.40;99.90
19680;DHT22;9989;48.962;9.182;2023-04-01T02:23:12;10.40;99.90
19680;DHT22;9989;48.962;9.182;2023-04-01T02:25:41;10.30;99.90
19680;DHT22;9989;48.962;9.182;2023-04-01T02:28:09;10.20;99.90
19680;DHT22;9989;48.962;9.182;2023-04-01T02:30:36;10.20;99.90
19680;DHT22;9989;48.962;9.182;2023-04-01T02:33:05;10.20;99.90
19680;DHT22;9989;48.962;9.182;2023-04-01T02:35:35;10.20;99.90
19680;DHT22;9989;48.962;9.182;2023-04-01T02:38:02;10.20;99.90
19680;DHT22;9989;48.962;9.182;2023-04-01T02:40:28;10.20;99.90
19680;DHT22;9989;48.962;9.182;2023-04-01T02:42:53;10.10;99.90
19680;DHT22;9989;48.962;9.182;2023-04-01T02:45:19;10.10;99.90
19680;DHT22;9989;48.962;9.182;2023-04-01T02:47:45;10.20;99.90
19680;DHT22;9989;48.962;9.182;2023-04-01T02:50:11;10.20;99.90
19680;DHT22;9989;48.962;9.182;2023-04-01T02:52:39;10.10;99.90
19680;DHT22;9989;48.962;9.182;2023-04-01T02:55:06;10.10;99.90
19680;DHT22;9989;48.962;9.182;2023-04-01T02:57:31;10.10;99.90
19680;DHT22;9989;48.962;9.182;2023-04-01T02:59:57;10.10;99.90
19680;DHT22;9989;48.962;9.182;2023-04-01T03:02:22;10.10;99.90
19680;DHT22;9989;48.962;9.182;2023-04-01T03:04:48;10.10;99.90
19680;DHT22;9989;48.962;9.182;2023-04-01T03:07:13;10.10;99.90
19680;DHT22;9989;48.962;9.182;2023-04-01T03:09:39;10.10;99.90
19680;DHT22;9989;48.962;9.182;2023-04-01T03:12:05;10.10;99.90
19680;DHT22;9989;48.962;9.182;2023-04-01T03:14:31;10.10;99.90
19680;DHT22;9989;48.962;9.182;2023-04-01T03:16:56;10.00;99.90
19680;DHT22;9989;48.962;9.182;2023-04-01T03:19:22;10.00;99.90
19680;DHT22;9989;48.962;9.182;2023-04-01T03:21:47;10.00;99.90
19680;DHT22;9989;48.962;9.182;2023-04-01T03:24:13;10.00;99.90
19680;DHT22;9989;48.962;9.182;2023-04-01T03:26:39;10.00;99.90
19680;DHT22;9989;48.962;9.182;2023-04-01T03:29:04;10.00;99.90
19680;DHT22;9989;48.962;9.182;2023-04-01T03:31:30;10.00;99.90
19680;DHT22;9989;48.962;9.182;2023-04-01T03:33:56;10.00;99.90
19680;DHT22;9989;48.962;9.182;2023-04-01T03:36:21;10.00;99.90
19680;DHT22;9989;48.962;9.182;2023-04-01T03:38:47;9.90;99.90
19680;DHT22;9989;48.962;9.182;2023-04-01T03:41:16;9.90;99.90
19680;DHT22;9989;48.962;9.182;2023-04-01T03:43:43;9.80;99.90
19680;DHT22;9989;48.962;9.182;2023-04-01T03:46:09;9.80;99.90
19680;DHT22;9989;48.962;9.182;2023-04-01T03:48:34;9.80;99.90
19680;DHT22;9989;48.962;9.182;2023-04-01T03:51:00;9.80;99.90
19680;DHT22;9989;48.962;9.182;2023-04-01T03:53:26;9.80;99.90
19680;DHT22;9989;48.962;9.182;2023-04-01T03:55:52;9.80;99.90
19680;DHT22;9989;48.962;9.182;2023-04-01T03:58:18;9.70;99.90
19680;DHT22;9989;48.962;9.182;2023-04-01T04:00:44;9.80;99.90
19680;DHT22;9989;48.962;9.182;2023-04-01T04:03:09;9.70;99.90
19680;DHT22;9989;48.962;9.182;2023-04-01T04:05:35;9.70;99.90
19680;DHT22;9989;48.962;9.182;2023-04-01T04:08:01;9.70;99.90
19680;DHT22;9989;48.962;9.182;2023-04-01T04:10:26;9.70;99.90
19680;DHT22;9989;48.962;9.182;2023-04-01T04:12:54;9.60;99.90
19680;DHT22;9989;48.962;9.182;2023-04-01T04:15:20;9.60;99.90
19680;DHT22;9989;48.962;9.182;2023-04-01T04:17:47;9.60;99.90
19680;DHT22;9989;48.962;9.182;2023-04-01T04:20:13;9.60;99.90
19680;DHT22;9989;48.962;9.182;2023-04-01T04:22:39;9.60;99.90
19680;DHT22;9989;48.962;9.182;2023-04-01T04:25:05;9.60;99.90
19680;DHT22;9989;48.962;9.182;2023-04-01T04:27:31;9.60;99.90
19680;DHT22;9989;48.962;9.182;2023-04-01T04:29:56;9.50;99.90
19680;DHT22;9989;48.962;9.182;2023-04-01T04:32:22;9.60;99.90
19680;DHT22;9989;48.962;9.182;2023-04-01T04:34:47;9.60;99.90
19680;DHT22;9989;48.962;9.182;2023-04-01T04:37:13;9.60;99.90
19680;DHT22;9989;48.962;9.182;2023-04-01T04:39:38;9.60;99.90
19680;DHT22;9989;48.962;9.182;2023-04-01T04:42:07;9.60;99.90
19680;DHT22;9989;48.962;9.182;2023-04-01T04:44:32;9.60;99.90
19680;DHT22;9989;48.962;9.182;2023-04-01T04:46:58;9.60;99.90
19680;DHT22;9989;48.962;9.182;2023-04-01T04:49:23;9.60;99.90
19680;DHT22;9989;48.962;9.182;2023-04-01T04:51:49;9.50;99.90
19680;DHT22;9989;48.962;9.182;2023-04-01T04:54:15;9.50;99.90
19680;DHT22;9989;48.962;9.182;2023-04-01T04:56:40;9.60;99.90
19680;DHT22;9989;48.962;9.182;2023-04-01T04:59:06;9.50;99.90
19680;DHT22;9989;48.962;9.182;2023-04-01T05:01:32;9.50;99.90
19680;DHT22;9989;48.962;9.182;2023-04-01T05:03:58;9.50;99.90
19680;DHT22;9989;48.962;9.182;2023-04-01T05:06:24;9.50;99.90
19680;DHT22;9989;48.962;9.182;2023-04-01T05:08:51;9.60;99.90
19680;DHT22;9989;48.962;9.182;2023-04-01T05:11:19;9.60;99.90
19680;DHT22;9989;48.962;9.182;2023-04-01T05:13:45;9.60;99.90
19680;DHT22;9989;48.962;9.182;2023-04-01T05:16:15;9.60;99.90
19680;DHT22;9989;48.962;9.182;2023-04-01T05:18:41;9.60;99.90
19680;DHT22;9989;48.962;9.182;2023-04-01T05:21:11;9.60;99.90
19680;DHT22;9989;48.962;9.182;2023-04-01T05:23:37;9.60;99.90
19680;DHT22;9989;48.962;9.182;2023-04-01T05:26:07;9.60;99.90
19680;DHT22;9989;48.962;9.182;2023-04-01T05:28:33;9.60;99.90
19680;DHT22;9989;48.962;9.182;2023-04-01T05:31:00;9.60;99.90
19680;DHT22;9989;48.962;9.182;2023-04-01T05:33:27;9.60;99.90
19680;DHT22;9989;48.962;9.182;2023-04-01T05:35:53;9.70;99.90
19680;DHT22;9989;48.962;9.182;2023-04-01T05:38:19;9.70;99.90
19680;DHT22;9989;48.962;9.182;2023-04-01T05:40:44;9.70;99.90
19680;DHT22;9989;48.962;9.182;2023-04-01T05:43:11;9.80;99.90
19680;DHT22;9989;48.962;9.182;2023-04-01T05:45:36;9.70;99.90
19680;DHT22;9989;48.962;9.182;2023-04-01T05:48:03;9.80;99.90
19680;DHT22;9989;48.962;9.182;2023-04-01T05:50:28;9.80;99.90
19680;DHT22;9989;48.962;9.182;2023-04-01T05:52:54;9.70;99.90
19680;DHT22;9989;48.962;9.182;2023-04-01T05:55:20;9.70;99.90
19680;DHT22;9989;48.962;9.182;2023-04-01T05:57:46;9.80;99.90
19680;DHT22;9989;48.962;9.182;2023-04-01T06:00:14;9.80;99.90
19680;DHT22;9989;48.962;9.182;2023-04-01T06:02:40;9.80;99.90
19680;DHT22;9989;48.962;9.182;2023-04-01T06:05:21;9.80;99.90
19680;DHT22;9989;48.962;9.182;2023-04-01T06:07:47;9.80;99.90
19680;DHT22;9989;48.962;9.182;2023-04-01T06:10:18;9.80;99.90
19680;DHT22;9989;48.962;9.182;2023-04-01T06:15:42;9.80;99.90
19680;DHT22;9989;48.962;9.182;2023-04-01T06:18:41;9.80;99.90
19680;DHT22;9989;48.962;9.182;2023-04-01T06:27:36;9.90;99.90
19680;DHT22;9989;48.962;9.182;2023-04-01T06:36:09;9.90;99.90
19680;DHT22;9989;48.962;9.182;2023-04-01T06:41:53;10.10;99.90
19680;DHT22;9989;48.962;9.182;2023-04-01T06:44:24;10.20;99.90
19680;DHT22;9989;48.962;9.182;2023-04-01T06:52:38;10.30;99.90
19680;DHT22;9989;48.962;9.182;2023-04-01T06:55:17;10.30;99.90
19680;DHT22;9989;48.962;9.182;2023-04-01T06:57:52;10.40;99.90
19680;DHT22;9989;48.962;9.182;2023-04-01T07:03:19;10.50;99.90
19680;DHT22;9989;48.962;9.182;2023-04-01T07:05:46;10.50;99.90
19680;DHT22;9989;48.962;9.182;2023-04-01T07:08:18;10.50;99.90
19680;DHT22;9989;48.962;9.182;2023-04-01T07:11:00;10.50;99.90
19680;DHT22;9989;48.962;9.182;2023-04-01T07:13:39;10.60;99.90
19680;DHT22;9989;48.962;9.182;2023-04-01T07:16:26;10.60;99.90
19680;DHT22;9989;48.962;9.182;2023-04-01T07:19:05;10.50;99.90
19680;DHT22;9989;48.962;9.182;2023-04-01T07:21:47;10.60;99.90
19680;DHT22;9989;48.962;9.182;2023-04-01T07:24:24;10.60;99.90
19680;DHT22;9989;48.962;9.182;2023-04-01T07:26:55;10.70;99.90
19680;DHT22;9989;48.962;9.182;2023-04-01T07:29:21;10.70;99.90
19680;DHT22;9989;48.962;9.182;2023-04-01T07:34:26;10.60;99.90
19680;DHT22;9989;48.962;9.182;2023-04-01T07:40:05;10.50;99.90
19680;DHT22;9989;48.962;9.182;2023-04-01T07:51:02;10.60;99.90
19680;DHT22;9989;48.962;9.182;2023-04-01T07:58:52;10.70;99.90
19680;DHT22;9989;48.962;9.182;2023-04-01T08:07:23;10.70;99.90
19680;DHT22;9989;48.962;9.182;2023-04-01T08:10:21;10.70;99.90
19680;DHT22;9989;48.962;9.182;2023-04-01T08:20:59;10.90;99.90
19680;DHT22;9989;48.962;9.182;2023-04-01T08:23:43;10.90;99.90
19680;DHT22;9989;48.962;9.182;2023-04-01T08:28:50;10.80;99.90
19680;DHT22;9989;48.962;9.182;2023-04-01T08:34:17;10.70;99.90
19680;DHT22;9989;48.962;9.182;2023-04-01T08:36:52;10.60;99.90
19680;DHT22;9989;48.962;9.182;2023-04-01T08:39:29;10.60;99.90
19680;DHT22;9989;48.962;9.182;2023-04-01T08:45:09;10.40;99.90
19680;DHT22;9989;48.962;9.182;2023-04-01T08:53:53;10.20;99.90
19680;DHT22;9989;48.962;9.182;2023-04-01T08:56:45;10.20;99.90
19680;DHT22;9989;48.962;9.182;2023-04-01T09:13:49;10.10;99.90
19680;DHT22;9989;48.962;9.182;2023-04-01T09:22:09;10.30;99.90
19680;DHT22;9989;48.962;9.182;2023-04-01T09:27:25;10.40;99.90
19680;DHT22;9989;48.962;9.182;2023-04-01T09:35:55;10.60;99.90
19680;DHT22;9989;48.962;9.182;2023-04-01T09:52:09;10.80;99.90
19680;DHT22;9989;48.962;9.182;2023-04-01T09:54:49;10.90;99.90
19680;DHT22;9989;48.962;9.182;2023-04-01T10:00:10;11.00;99.90
19680;DHT22;9989;48.962;9.182;2023-04-01T10:05:27;11.00;99.90
19680;DHT22;9989;48.962;9.182;2023-04-01T10:11:01;11.00;99.90
19680;DHT22;9989;48.962;9.182;2023-04-01T10:19:35;11.00;99.90
19680;DHT22;9989;48.962;9.182;2023-04-01T10:32:49;10.90;99.90
19680;DHT22;9989;48.962;9.182;2023-04-01T10:44:07;10.90;99.90
19680;DHT22;9989;48.962;9.182;2023-04-01T10:47:03;11.00;99.90
19680;DHT22;9989;48.962;9.182;2023-04-01T11:24:45;11.50;99.90
19680;DHT22;9989;48.962;9.182;2023-04-01T11:41:46;11.90;99.90
19680;DHT22;9989;48.962;9.182;2023-04-01T12:05:38;12.10;99.90
19680;DHT22;9989;48.962;9.182;2023-04-01T12:08:28;12.00;99.90
19680;DHT22;9989;48.962;9.182;2023-04-01T12:11:28;12.00;99.90
19680;DHT22;9989;48.962;9.182;2023-04-01T12:14:30;12.10;99.90
19680;DHT22;9989;48.962;9.182;2023-04-01T12:19:51;11.90;99.90
19680;DHT22;9989;48.962;9.182;2023-04-01T12:22:34;11.90;99.90
19680;DHT22;9989;48.962;9.182;2023-04-01T12:30:41;11.90;99.90
19680;DHT22;9989;48.962;9.182;2023-04-01T12:43:54;11.80;99.90
19680;DHT22;9989;48.962;9.182;2023-04-01T12:51:46;11.70;99.90
19680;DHT22;9989;48.962;9.182;2023-04-01T13:03:15;11.90;99.90
19680;DHT22;9989;48.962;9.182;2023-04-01T13:20:16;11.60;99.90
19680;DHT22;9989;48.962;9.182;2023-04-01T13:22:58;11.50;99.90
19680;DHT22;9989;48.962;9.182;2023-04-01T13:25:36;11.40;99.90
19680;DHT22;9989;48.962;9.182;2023-04-01T13:28:37;11.40;99.90
19680;DHT22;9989;48.962;9.182;2023-04-01T13:33:57;11.40;99.90
19680;DHT22;9989;48.962;9.182;2023-04-01T13:39:41;11.30;99.90
19680;DHT22;9989;48.962;9.182;2023-04-01T13:42:23;11.20;99.90
19680;DHT22;9989;48.962;9.182;2023-04-01T14:09:25;11.30;99.90
19680;DHT22;9989;48.962;9.182;2023-04-01T14:17:59;11.40;99.90
19680;DHT22;9989;48.962;9.182;2023-04-01T14:28:18;11.20;99.90
19680;DHT22;9989;48.962;9.182;2023-04-01T14:39:38;11.40;99.90
19680;DHT22;9989;48.962;9.182;2023-04-01T14:48:31;11.80;99.90
19680;DHT22;9989;48.962;9.182;2023-04-01T14:51:09;11.80;99.90
19680;DHT22;9989;48.962;9.182;2023-04-01T14:53:38;11.80;99.90
19680;DHT22;9989;48.962;9.182;2023-04-01T14:56:07;12.00;99.90
19680;DHT22;9989;48.962;9.182;2023-04-01T14:58:45;12.10;99.90
19680;DHT22;9989;48.962;9.182;2023-04-01T15:06:41;12.10;99.90
19680;DHT22;9989;48.962;9.182;2023-04-01T15:09:33;12.10;99.90
19680;DHT22;9989;48.962;9.182;2023-04-01T15:12:29;11.90;99.90
19680;DHT22;9989;48.962;9.182;2023-04-01T15:18:03;11.80;99.90
19680;DHT22;9989;48.962;9.182;2023-04-01T15:21:00;11.70;99.90
19680;DHT22;9989;48.962;9.182;2023-04-01T15:23:36;11.80;99.90
19680;DHT22;9989;48.962;9.182;2023-04-01T15:26:22;11.70;99.90
19680;DHT22;9989;48.962;9.182;2023-04-01T15:37:36;11.80;99.90
19680;DHT22;9989;48.962;9.182;2023-04-01T15:48:11;11.60;99.90
19680;DHT22;9989;48.962;9.182;2023-04-01T15:53:19;11.60;99.90
19680;DHT22;9989;48.962;9.182;2023-04-01T15:55:50;11.60;99.90
19680;DHT22;9989;48.962;9.182;2023-04-01T16:07:37;11.60;99.90
19680;DHT22;9989;48.962;9.182;2023-04-01T16:13:28;11.50;99.90
19680;DHT22;9989;48.962;9.182;2023-04-01T16:21:27;11.60;99.90
19680;DHT22;9989;48.962;9.182;2023-04-01T16:24:08;11.50;99.90
19680;DHT22;9989;48.962;9.182;2023-04-01T16:26:52;11.60;99.90
19680;DHT22;9989;48.962;9.182;2023-04-01T16:29:24;11.60;99.90
19680;DHT22;9989;48.962;9.182;2023-04-01T16:32:53;11.60;99.90
19680;DHT22;9989;48.962;9.182;2023-04-01T16:35:04;11.60;99.90
19680;DHT22;9989;48.962;9.182;2023-04-01T16:43:10;11.60;99.90
19680;DHT22;9989;48.962;9.182;2023-04-01T17:04:45;11.50;99.90
19680;DHT22;9989;48.962;9.182;2023-04-01T17:10:17;11.50;99.90
19680;DHT22;9989;48.962;9.182;2023-04-01T17:27:23;11.50;99.90
19680;DHT22;9989;48.962;9.182;2023-04-01T17:30:14;11.50;99.90
19680;DHT22;9989;48.962;9.182;2023-04-01T17:38:48;11.30;99.90
19680;DHT22;9989;48.962;9.182;2023-04-01T17:47:19;11.30;99.90
19680;DHT22;9989;48.962;9.182;2023-04-01T17:58:46;11.30;99.90
19680;DHT22;9989;48.962;9.182;2023-04-01T18:04:08;11.20;99.90
19680;DHT22;9989;48.962;9.182;2023-04-01T18:24:02;11.00;99.90
19680;DHT22;9989;48.962;9.182;2023-04-01T18:26:33;11.00;99.90
19680;DHT22;9989;48.962;9.182;2023-04-01T18:29:24;10.90;99.90
19680;DHT22;9989;48.962;9.182;2023-04-01T18:31:55;10.90;99.90
19680;DHT22;9989;48.962;9.182;2023-04-01T18:37:36;10.90;99.90
19680;DHT22;9989;48.962;9.182;2023-04-01T18:45:40;10.90;99.90
19680;DHT22;9989;48.962;9.182;2023-04-01T18:50:55;10.80;99.90
19680;DHT22;9989;48.962;9.182;2023-04-01T18:54:11;10.80;99.90
19680;DHT22;9989;48.962;9.182;2023-04-01T18:56:32;10.80;99.90
19680;DHT22;9989;48.962;9.182;2023-04-01T19:02:02;10.80;99.90
19680;DHT22;9989;48.962;9.182;2023-04-01T19:04:37;10.80;99.90
19680;DHT22;9989;48.962;9.182;2023-04-01T19:09:51;10.60;99.90
19680;DHT22;9989;48.962;9.182;2023-04-01T19:12:44;10.50;99.90
19680;DHT22;9989;48.962;9.182;2023-04-01T19:15:37;10.50;99.90
19680;DHT22;9989;48.962;9.182;2023-04-01T19:40:23;10.20;99.90
19680;DHT22;9989;48.962;9.182;2023-04-01T19:45:46;10.10;99.90
19680;DHT22;9989;48.962;9.182;2023-04-01T19:56:50;10.10;99.90
19680;DHT22;9989;48.962;9.182;2023-04-01T20:07:19;10.10;99.90
19680;DHT22;9989;48.962;9.182;2023-04-01T20:14:58;10.10;99.90
19680;DHT22;9989;48.962;9.182;2023-04-01T20:30:38;10.20;99.90
19680;DHT22;9989;48.962;9.182;2023-04-01T20:38:40;10.00;99.90
19680;DHT22;9989;48.962;9.182;2023-04-01T20:41:12;10.00;99.90
19680;DHT22;9989;48.962;9.182;2023-04-01T20:52:26;9.90;99.90
19680;DHT22;9989;48.962;9.182;2023-04-01T21:00:40;9.80;99.90
19680;DHT22;9989;48.962;9.182;2023-04-01T21:11:07;9.90;99.90
19680;DHT22;9989;48.962;9.182;2023-04-01T21:16:50;9.90;99.90
19680;DHT22;9989;48.962;9.182;2023-04-01T21:32:45;10.00;99.90
19680;DHT22;9989;48.962;9.182;2023-04-01T21:35:35;10.00;99.90
19680;DHT22;9989;48.962;9.182;2023-04-01T21:49:26;10.30;99.90
19680;DHT22;9989;48.962;9.182;2023-04-01T21:52:35;10.40;99.90
19680;DHT22;9989;48.962;9.182;2023-04-01T21:58:16;10.50;99.90
19680;DHT22;9989;48.962;9.182;2023-04-01T22:01:07;10.40;99.90
19680;DHT22;9989;48.962;9.182;2023-04-01T22:04:07;10.40;99.90
19680;DHT22;9989;48.962;9.182;2023-04-01T22:06:52;10.40;99.90
19680;DHT22;9989;48.962;9.182;2023-04-01T22:09:39;10.50;99.90
19680;DHT22;9989;48.962;9.182;2023-04-01T22:15:25;10.50;99.90
19680;DHT22;9989;48.962;9.182;2023-04-01T22:18:13;10.50;99.90
19680;DHT22;9989;48.962;9.182;2023-04-01T22:29:31;10.40;99.90
19680;DHT22;9989;48.962;9.182;2023-04-01T22:32:32;10.40;99.90
19680;DHT22;9989;48.962;9.182;2023-04-01T22:35:10;10.40;99.90
19680;DHT22;9989;48.962;9.182;2023-04-01T22:40:59;10.50;99.90
19680;DHT22;9989;48.962;9.182;2023-04-01T22:43:45;10.50;99.90
19680;DHT22;9989;48.962;9.182;2023-04-01T22:46:25;10.50;99.90
19680;DHT22;9989;48.962;9.182;2023-04-01T22:49:12;10.50;99.90
19680;DHT22;9989;48.962;9.182;2023-04-01T22:52:05;10.50;99.90
19680;DHT22;9989;48.962;9.182;2023-04-01T22:54:40;10.50;99.90
19680;DHT22;9989;48.962;9.182;2023-04-01T23:00:05;10.60;99.90
19680;DHT22;9989;48.962;9.182;2023-04-01T23:02:39;10.60;99.90
19680;DHT22;9989;48.962;9.182;2023-04-01T23:05:06;10.60;99.90
19680;DHT22;9989;48.962;9.182;2023-04-01T23:10:49;10.50;99.90
19680;DHT22;9989;48.962;9.182;2023-04-01T23:13:35;10.50;99.90
19680;DHT22;9989;48.962;9.182;2023-04-01T23:35:56;10.40;99.90
19680;DHT22;9989;48.962;9.182;2023-04-01T23:38:32;10.40;99.90
19680;DHT22;9989;48.962;9.182;2023-04-01T23:41:00;10.40;99.90
19680;DHT22;9989;48.962;9.182;2023-04-01T23:43:31;10.40;99.90
19680;DHT22;9989;48.962;9.182;2023-04-01T23:45:58;10.40;99.90
19680;DHT22;9989;48.962;9.182;2023-04-01T23:48:31;10.50;99.90
19680;DHT22;9989;48.962;9.182;2023-04-01T23:50:58;10.40;99.90
19680;DHT22;9989;48.962;9.182;2023-04-01T23:53:25;10.40;99.90
19680;DHT22;9989;48.962;9.182;2023-04-01T23:55:54;10.40;99.90
